Time;durP1;ratioP1;P1;durP2;ratioP2;P2;SDS_P1;SDS_P2;PMS_P1;PMS_P2;Temp;Humidity;BMP_temperature;BMP_pressure;BME280_temperature;BME280_humidity;BME280_pressure;Samples;Min_cycle;Max_cycle;Signal;HPM_P1;HPM_P2
2022/03/25 00:00:25;;;;;;;101.13;61.33;;;4.00;99.90;;;;;;5061050;28;20045;-32
2022/03/25 00:02:52;;;;;;;100.27;60.17;;;4.00;99.90;;;;;;5049599;28;20048;-35
2022/03/25 00:05:19;;;;;;;104.17;61.80;;;3.90;99.90;;;;;;5049771;28;20464;-34
2022/03/25 00:07:44;;;;;;;109.00;62.43;;;3.90;99.90;;;;;;5034087;28;20083;-35
2022/03/25 00:10:10;;;;;;;110.17;62.80;;;3.90;99.90;;;;;;5068754;28;20076;-33
2022/03/25 00:12:36;;;;;;;106.17;63.03;;;3.90;99.90;;;;;;5069846;28;20040;-34
2022/03/25 00:15:02;;;;;;;106.30;63.10;;;3.90;99.90;;;;;;5070095;28;20080;-32
2022/03/25 00:17:27;;;;;;;116.50;65.57;;;3.90;99.90;;;;;;5053802;28;20133;-33
2022/03/25 00:19:53;;;;;;;107.50;64.17;;;3.80;99.90;;;;;;5069358;28;20241;-36
2022/03/25 00:22:19;;;;;;;112.87;63.43;;;3.90;99.90;;;;;;5069545;28;20127;-33
2022/03/25 00:24:45;;;;;;;111.00;63.50;;;3.80;99.90;;;;;;5069868;28;20063;-32
2022/03/25 00:27:10;;;;;;;108.40;63.33;;;3.80;99.90;;;;;;5053727;28;20040;-32
2022/03/25 00:29:36;;;;;;;109.83;64.17;;;3.80;99.90;;;;;;5069666;28;20178;-35
2022/03/25 00:32:03;;;;;;;113.00;63.80;;;3.80;99.90;;;;;;5068870;28;20589;-42
2022/03/25 00:34:29;;;;;;;113.17;63.77;;;3.80;99.90;;;;;;5068399;28;20051;-35
2022/03/25 00:36:55;;;;;;;109.57;63.77;;;3.80;99.90;;;;;;5052480;28;20060;-35
2022/03/25 00:39:20;;;;;;;105.00;62.33;;;3.80;99.90;;;;;;5054360;28;20051;-32
2022/03/25 00:41:47;;;;;;;111.77;65.90;;;3.70;99.90;;;;;;5049403;28;20040;-34
2022/03/25 00:44:14;;;;;;;116.27;65.57;;;3.70;99.90;;;;;;5048915;28;20045;-35
2022/03/25 00:46:40;;;;;;;110.37;63.23;;;3.70;99.90;;;;;;5035983;28;20047;-32
2022/03/25 00:49:06;;;;;;;117.83;65.97;;;3.60;99.90;;;;;;5046320;28;20431;-33
2022/03/25 00:51:32;;;;;;;108.83;63.87;;;3.70;99.90;;;;;;5048116;28;20124;-34
2022/03/25 00:53:58;;;;;;;111.23;62.80;;;3.60;99.90;;;;;;5048768;28;20091;-34
2022/03/25 00:56:24;;;;;;;108.57;63.27;;;3.60;99.90;;;;;;5035321;28;20110;-35
2022/03/25 00:58:51;;;;;;;112.37;64.53;;;3.60;99.90;;;;;;5049314;28;20053;-35
2022/03/25 01:01:17;;;;;;;111.43;63.93;;;3.60;99.90;;;;;;5065006;28;20044;-34
2022/03/25 01:03:43;;;;;;;110.73;63.03;;;3.60;99.90;;;;;;5062823;28;20294;-34
2022/03/25 01:06:10;;;;;;;111.53;63.70;;;3.60;99.90;;;;;;5044720;28;20045;-35
2022/03/25 01:08:35;;;;;;;107.83;62.13;;;3.60;99.90;;;;;;5038714;28;20128;-32
2022/03/25 01:11:04;;;;;;;101.40;60.93;;;3.60;99.90;;;;;;5048179;28;20120;-32
2022/03/25 01:13:33;;;;;;;107.87;61.80;;;3.60;99.90;;;;;;5048446;28;20531;-34
2022/03/25 01:16:04;;;;;;;108.77;61.37;;;3.50;99.90;;;;;;5048525;28;20419;-33
2022/03/25 01:18:30;;;;;;;106.65;60.28;;;3.60;99.90;;;;;;5033688;28;20045;-33
2022/03/25 01:20:57;;;;;;;100.47;59.13;;;3.50;99.90;;;;;;5048422;28;20113;-33
2022/03/25 01:23:23;;;;;;;100.83;57.63;;;3.50;99.90;;;;;;5048523;28;20114;-32
2022/03/25 01:25:49;;;;;;;96.53;57.03;;;3.50;99.90;;;;;;5048609;28;20111;-34
2022/03/25 01:28:15;;;;;;;105.73;60.10;;;3.50;99.90;;;;;;5032562;28;20084;-32
2022/03/25 01:30:41;;;;;;;102.23;57.50;;;3.50;99.90;;;;;;5048660;28;20110;-32
2022/03/25 01:33:07;;;;;;;102.83;56.93;;;3.40;99.90;;;;;;5046379;28;20446;-35
2022/03/25 01:35:37;;;;;;;70.30;43.77;;;3.40;99.90;;;;;;5047696;28;20133;-33
2022/03/25 01:38:03;;;;;;;65.53;41.83;;;3.40;99.90;;;;;;5032985;28;20037;-34
2022/03/25 01:40:28;;;;;;;77.50;46.40;;;3.30;99.90;;;;;;5048645;28;20052;-35
2022/03/25 01:42:54;;;;;;;64.33;38.87;;;3.20;99.90;;;;;;5045957;28;20049;-34
2022/03/25 01:45:34;;;;;;;49.13;33.47;;;3.20;99.90;;;;;;5048563;28;20045;-35
2022/03/25 01:48:01;;;;;;;44.40;30.60;;;3.10;99.90;;;;;;5030599;28;20146;-36
2022/03/25 01:50:27;;;;;;;40.10;29.07;;;3.00;99.90;;;;;;5048458;28;20110;-32
2022/03/25 01:52:53;;;;;;;41.00;28.63;;;2.90;99.90;;;;;;5047407;28;20495;-33
2022/03/25 01:55:24;;;;;;;42.97;29.57;;;2.80;99.90;;;;;;5048073;28;20571;-33
2022/03/25 01:57:51;;;;;;;39.25;27.58;;;2.70;99.90;;;;;;5041559;28;20412;-32
2022/03/25 02:00:18;;;;;;;38.50;27.33;;;2.60;99.90;;;;;;5059568;28;20414;-31
2022/03/25 02:02:45;;;;;;;42.33;28.87;;;2.50;99.90;;;;;;5046461;28;20419;-35
2022/03/25 02:05:10;;;;;;;42.03;29.70;;;2.40;99.90;;;;;;5051316;28;20087;-32
2022/03/25 02:07:37;;;;;;;43.93;30.23;;;2.30;99.90;;;;;;5035663;28;20064;-33
2022/03/25 02:10:04;;;;;;;38.63;27.90;;;2.30;99.90;;;;;;5067718;28;20098;-33
2022/03/25 02:12:37;;;;;;;44.17;29.20;;;2.20;99.90;;;;;;5066834;28;20055;-34
2022/03/25 02:15:05;;;;;;;42.57;28.00;;;2.10;99.90;;;;;;5066791;28;20399;-32
2022/03/25 02:17:31;;;;;;;47.20;32.03;;;2.10;99.90;;;;;;5051145;28;20487;-34
2022/03/25 02:19:56;;;;;;;53.43;34.53;;;2.00;99.90;;;;;;5067841;28;20056;-34
2022/03/25 02:22:24;;;;;;;62.93;38.57;;;2.00;99.90;;;;;;5065552;28;20141;-34
2022/03/25 02:24:50;;;;;;;63.70;38.80;;;2.00;99.90;;;;;;5067901;28;20466;-34
2022/03/25 02:27:19;;;;;;;64.90;40.47;;;2.00;99.90;;;;;;5051401;28;20052;-32
2022/03/25 02:29:45;;;;;;;79.37;47.40;;;2.00;99.90;;;;;;5067361;28;20048;-32
2022/03/25 02:32:11;;;;;;;82.93;48.30;;;2.00;99.90;;;;;;5066757;28;20044;-31
2022/03/25 02:34:37;;;;;;;81.97;49.13;;;2.00;99.90;;;;;;5056534;28;20053;-33
2022/03/25 02:37:04;;;;;;;83.57;47.73;;;2.00;99.90;;;;;;5030808;28;20291;-32
2022/03/25 02:39:30;;;;;;;81.60;47.77;;;2.00;99.90;;;;;;5047185;28;20052;-35
2022/03/25 02:41:56;;;;;;;84.00;49.30;;;2.00;99.90;;;;;;5047369;28;20091;-31
2022/03/25 02:44:23;;;;;;;78.47;47.60;;;2.00;99.90;;;;;;5046789;28;20041;-35
2022/03/25 02:46:48;;;;;;;86.70;48.10;;;2.00;99.90;;;;;;5043976;28;20067;-34
2022/03/25 02:49:15;;;;;;;87.07;49.10;;;2.00;99.90;;;;;;5066691;28;20052;-33
2022/03/25 02:51:41;;;;;;;84.93;49.73;;;2.00;99.90;;;;;;5067437;28;20120;-32
2022/03/25 02:54:07;;;;;;;87.47;48.77;;;2.00;99.90;;;;;;5048741;28;20125;-32
2022/03/25 02:56:32;;;;;;;79.30;47.83;;;2.00;99.90;;;;;;5053200;28;20117;-33
2022/03/25 02:58:59;;;;;;;91.50;50.83;;;2.00;99.90;;;;;;5063543;28;20044;-32
2022/03/25 03:01:25;;;;;;;88.73;48.50;;;2.00;99.90;;;;;;5049866;28;20061;-32
2022/03/25 03:03:51;;;;;;;83.67;48.93;;;2.00;99.90;;;;;;5052363;28;20518;-33
2022/03/25 03:06:17;;;;;;;82.90;48.37;;;2.00;99.90;;;;;;5042734;28;20067;-35
2022/03/25 03:08:43;;;;;;;81.50;47.77;;;2.00;99.90;;;;;;5044502;28;20068;-34
2022/03/25 03:11:11;;;;;;;83.43;49.30;;;2.00;99.90;;;;;;5066993;28;20519;-32
2022/03/25 03:13:37;;;;;;;77.43;43.97;;;2.00;99.90;;;;;;5070328;28;20044;-35
2022/03/25 03:16:03;;;;;;;79.40;45.93;;;2.00;99.90;;;;;;5071049;28;20443;-34
2022/03/25 03:18:28;;;;;;;73.43;42.87;;;1.90;99.90;;;;;;5054877;28;20063;-33
2022/03/25 03:20:54;;;;;;;81.43;46.57;;;1.90;99.90;;;;;;5070926;28;20454;-34
2022/03/25 03:23:20;;;;;;;71.70;42.17;;;1.90;99.90;;;;;;5069076;28;20051;-34
2022/03/25 03:25:46;;;;;;;63.00;39.00;;;1.90;99.90;;;;;;5069386;28;20135;-33
2022/03/25 03:28:13;;;;;;;61.97;36.80;;;1.80;99.90;;;;;;5054454;28;20037;-33
2022/03/25 03:30:38;;;;;;;59.97;36.80;;;1.80;99.90;;;;;;5071325;28;20052;-33
2022/03/25 03:33:08;;;;;;;65.87;38.87;;;1.70;99.90;;;;;;5068747;28;20044;-35
2022/03/25 03:35:34;;;;;;;72.23;41.83;;;1.70;99.90;;;;;;5050456;28;20049;-35
2022/03/25 03:38:01;;;;;;;69.07;41.67;;;1.70;99.90;;;;;;5035236;28;20029;-35
2022/03/25 03:40:27;;;;;;;71.27;42.50;;;1.70;99.90;;;;;;5049314;28;20056;-33
2022/03/25 03:42:52;;;;;;;81.40;46.73;;;1.70;99.90;;;;;;5031871;28;20121;-35
2022/03/25 03:45:18;;;;;;;78.30;44.70;;;1.70;99.90;;;;;;5049687;28;20056;-35
2022/03/25 03:47:45;;;;;;;77.03;44.40;;;1.70;99.90;;;;;;5053774;28;20070;-34
2022/03/25 03:50:13;;;;;;;78.77;45.73;;;1.70;99.90;;;;;;5071098;28;20052;-33
2022/03/25 03:52:40;;;;;;;80.30;45.57;;;1.70;99.90;;;;;;5051301;28;20040;-33
2022/03/25 03:55:08;;;;;;;72.47;42.77;;;1.70;99.90;;;;;;5070399;28;20480;-34
2022/03/25 03:57:35;;;;;;;76.40;44.90;;;1.70;99.90;;;;;;5028064;28;20048;-35
2022/03/25 04:00:01;;;;;;;77.27;44.73;;;1.70;99.90;;;;;;5054336;28;20049;-35
2022/03/25 04:02:26;;;;;;;78.23;45.17;;;1.70;99.90;;;;;;5069430;28;20063;-34
2022/03/25 04:04:52;;;;;;;74.47;44.80;;;1.70;99.90;;;;;;5068424;28;20507;-36
2022/03/25 04:07:19;;;;;;;80.27;45.60;;;1.70;99.90;;;;;;5053929;28;20566;-36
2022/03/25 04:09:45;;;;;;;85.53;48.23;;;1.70;99.90;;;;;;5070083;28;20048;-36
2022/03/25 04:12:13;;;;;;;86.73;47.17;;;1.70;99.90;;;;;;5069291;28;20043;-36
2022/03/25 04:14:38;;;;;;;86.43;47.50;;;1.70;99.90;;;;;;5069136;28;20153;-37
2022/03/25 04:17:04;;;;;;;79.87;44.27;;;1.70;99.90;;;;;;5053859;28;20503;-35
2022/03/25 04:19:30;;;;;;;76.03;45.33;;;1.70;99.90;;;;;;5068681;28;20048;-36
2022/03/25 04:21:56;;;;;;;70.50;41.77;;;1.70;99.90;;;;;;5069604;28;20280;-37
2022/03/25 04:24:21;;;;;;;76.30;45.70;;;1.70;99.90;;;;;;5068471;28;20052;-36
2022/03/25 04:26:47;;;;;;;76.63;44.50;;;1.60;99.90;;;;;;5054425;28;20525;-36
2022/03/25 04:29:12;;;;;;;72.97;42.27;;;1.60;99.90;;;;;;5067667;28;20563;-36
2022/03/25 04:31:38;;;;;;;72.93;42.33;;;1.60;99.90;;;;;;5068283;28;20480;-38
2022/03/25 04:34:04;;;;;;;70.83;41.87;;;1.60;99.90;;;;;;5038649;28;20048;-36
2022/03/25 04:36:30;;;;;;;78.67;43.63;;;1.60;99.90;;;;;;5035445;28;20044;-34
2022/03/25 04:38:56;;;;;;;71.53;42.63;;;1.60;99.90;;;;;;5047729;28;20372;-33
2022/03/25 04:41:23;;;;;;;80.20;44.47;;;1.60;99.90;;;;;;5050003;28;20500;-35
2022/03/25 04:43:51;;;;;;;76.63;43.50;;;1.60;99.90;;;;;;5047470;28;20098;-33
2022/03/25 04:46:17;;;;;;;75.40;44.63;;;1.60;99.90;;;;;;5038454;28;20056;-35
2022/03/25 04:48:43;;;;;;;76.13;44.13;;;1.60;99.90;;;;;;5043833;28;20041;-35
2022/03/25 04:51:08;;;;;;;86.53;46.60;;;1.60;99.90;;;;;;5047941;28;20041;-34
2022/03/25 04:53:34;;;;;;;86.53;47.93;;;1.60;99.90;;;;;;5048584;28;20053;-34
2022/03/25 04:56:01;;;;;;;82.07;45.80;;;1.60;99.90;;;;;;5049381;28;20049;-34
2022/03/25 04:58:26;;;;;;;87.00;45.20;;;1.60;99.90;;;;;;5047308;28;20082;-34
2022/03/25 05:00:52;;;;;;;82.40;45.47;;;1.60;99.90;;;;;;5056802;28;20048;-35
2022/03/25 05:03:19;;;;;;;86.80;48.93;;;1.60;99.90;;;;;;5053416;28;20411;-34
2022/03/25 05:05:45;;;;;;;93.03;51.10;;;1.60;99.90;;;;;;5069402;28;20123;-34
2022/03/25 05:08:11;;;;;;;89.93;50.73;;;1.60;99.90;;;;;;5051301;28;20051;-35
2022/03/25 05:10:41;;;;;;;93.33;50.17;;;1.60;99.90;;;;;;5068517;28;20040;-34
2022/03/25 05:13:08;;;;;;;98.77;50.13;;;1.60;99.90;;;;;;5067729;28;20126;-33
2022/03/25 05:15:34;;;;;;;83.63;47.67;;;1.60;99.90;;;;;;5069074;28;20106;-35
2022/03/25 05:18:00;;;;;;;84.60;48.13;;;1.70;99.90;;;;;;5052462;28;20075;-32
2022/03/25 05:20:25;;;;;;;93.30;51.77;;;1.70;99.90;;;;;;5067607;28;20053;-34
2022/03/25 05:22:51;;;;;;;94.47;51.93;;;1.70;99.90;;;;;;5067741;28;20615;-34
2022/03/25 05:25:18;;;;;;;90.80;49.97;;;1.70;99.90;;;;;;5068861;28;20041;-35
2022/03/25 05:27:52;;;;;;;91.33;49.87;;;1.70;99.90;;;;;;5051758;28;20750;-34
2022/03/25 05:30:24;;;;;;;93.80;49.23;;;1.70;99.90;;;;;;5068646;28;20493;-34
2022/03/25 05:32:50;;;;;;;99.00;50.22;;;1.70;99.90;;;;;;5062633;28;20063;-32
2022/03/25 05:35:17;;;;;;;88.03;50.10;;;1.70;99.90;;;;;;5048294;28;20399;-34
2022/03/25 05:37:43;;;;;;;98.03;52.53;;;1.70;99.90;;;;;;5034291;28;20103;-35
2022/03/25 05:40:10;;;;;;;97.20;50.10;;;1.80;99.90;;;;;;5057472;28;20404;-32
2022/03/25 05:42:36;;;;;;;91.60;51.27;;;1.80;99.90;;;;;;5027873;28;20604;-33
2022/03/25 05:45:04;;;;;;;95.70;51.13;;;1.80;99.90;;;;;;5048997;28;20047;-35
2022/03/25 05:47:30;;;;;;;90.23;50.63;;;1.80;99.90;;;;;;5032030;28;20099;-33
2022/03/25 05:49:57;;;;;;;94.50;53.13;;;1.80;99.90;;;;;;5047308;28;20061;-35
2022/03/25 05:52:23;;;;;;;101.53;54.97;;;1.80;99.90;;;;;;5047612;28;20036;-31
2022/03/25 05:54:49;;;;;;;102.77;56.47;;;1.80;99.90;;;;;;5048558;28;20177;-35
2022/03/25 05:57:15;;;;;;;102.00;54.03;;;1.80;99.90;;;;;;5036390;28;20377;-34
2022/03/25 05:59:41;;;;;;;103.73;55.30;;;1.90;99.90;;;;;;5065128;28;20427;-34
2022/03/25 06:02:08;;;;;;;106.77;58.20;;;1.90;99.90;;;;;;5047667;28;20052;-34
2022/03/25 06:04:34;;;;;;;104.27;56.33;;;2.10;99.90;;;;;;5066340;28;20586;-33
2022/03/25 06:07:00;;;;;;;109.03;57.07;;;2.00;99.90;;;;;;5051551;28;20056;-33
2022/03/25 06:09:26;;;;;;;101.90;54.90;;;2.00;99.90;;;;;;5062637;28;20531;-35
2022/03/25 06:11:51;;;;;;;107.33;56.47;;;2.10;99.90;;;;;;5046160;28;20044;-33
2022/03/25 06:14:17;;;;;;;106.27;56.77;;;2.10;99.90;;;;;;5046946;28;20040;-35
2022/03/25 06:16:44;;;;;;;112.93;57.73;;;2.20;99.90;;;;;;5032727;28;20072;-34
2022/03/25 06:19:10;;;;;;;116.57;60.20;;;2.40;99.90;;;;;;5055902;28;20127;-33
2022/03/25 06:21:36;;;;;;;126.43;60.37;;;2.30;99.90;;;;;;5066956;28;20120;-33
2022/03/25 06:24:02;;;;;;;112.53;58.00;;;2.30;99.90;;;;;;5061496;28;20722;-33
2022/03/25 06:26:27;;;;;;;114.23;59.93;;;2.40;99.90;;;;;;5042294;28;20086;-34
2022/03/25 06:28:54;;;;;;;109.80;57.37;;;2.50;99.90;;;;;;5053452;28;20076;-35
2022/03/25 06:31:20;;;;;;;111.47;59.83;;;2.50;99.90;;;;;;5057961;28;20446;-35
2022/03/25 06:33:46;;;;;;;119.17;59.87;;;2.60;99.90;;;;;;5048637;28;20086;-35
2022/03/25 06:36:13;;;;;;;120.70;61.23;;;2.70;99.90;;;;;;5040361;28;20041;-32
2022/03/25 06:38:42;;;;;;;126.80;63.23;;;2.70;99.90;;;;;;5041651;28;20057;-36
2022/03/25 06:41:09;;;;;;;120.70;61.13;;;2.80;99.90;;;;;;5061597;28;20463;-34
2022/03/25 06:43:35;;;;;;;123.27;61.80;;;2.90;99.90;;;;;;5065591;28;20048;-36
2022/03/25 06:46:02;;;;;;;128.03;62.50;;;3.00;99.90;;;;;;5067529;28;20188;-34
2022/03/25 06:48:28;;;;;;;124.53;63.10;;;3.10;99.90;;;;;;5054030;28;20079;-32
2022/03/25 06:50:54;;;;;;;131.13;63.33;;;3.20;99.90;;;;;;5072232;28;20083;-33
2022/03/25 06:53:20;;;;;;;126.87;62.73;;;3.30;99.90;;;;;;5069059;28;20059;-33
2022/03/25 06:55:46;;;;;;;123.60;64.17;;;3.40;99.90;;;;;;5065599;28;20487;-34
2022/03/25 06:58:12;;;;;;;121.13;62.40;;;3.50;99.90;;;;;;5050118;28;20496;-32
2022/03/25 07:00:38;;;;;;;117.27;60.83;;;3.60;99.90;;;;;;5059174;28;20163;-33
2022/03/25 07:03:04;;;;;;;123.23;62.67;;;3.70;99.90;;;;;;5059024;28;20048;-34
2022/03/25 07:05:31;;;;;;;110.70;57.17;;;3.80;99.90;;;;;;5070179;28;20043;-32
2022/03/25 07:07:58;;;;;;;106.47;57.07;;;3.90;99.90;;;;;;5054882;28;20040;-32
2022/03/25 07:10:26;;;;;;;106.80;53.67;;;4.00;99.90;;;;;;5071132;28;20093;-32
2022/03/25 07:12:53;;;;;;;103.60;53.60;;;4.10;99.90;;;;;;5068546;28;20556;-34
2022/03/25 07:15:20;;;;;;;93.13;52.30;;;4.20;99.90;;;;;;5071017;28;20084;-34
2022/03/25 07:17:46;;;;;;;99.40;52.57;;;4.20;99.90;;;;;;5054946;28;20052;-36
2022/03/25 07:20:14;;;;;;;93.47;50.50;;;4.30;99.90;;;;;;5070428;28;20407;-34
2022/03/25 07:22:44;;;;;;;98.83;50.40;;;4.40;99.90;;;;;;5069881;28;20062;-31
2022/03/25 07:25:14;;;;;;;91.47;49.83;;;4.50;99.90;;;;;;5071232;28;20045;-34
2022/03/25 07:27:41;;;;;;;86.20;48.27;;;4.60;99.90;;;;;;5054754;28;20123;-33
2022/03/25 07:30:07;;;;;;;77.70;46.40;;;4.70;99.90;;;;;;5071007;28;20037;-34
2022/03/25 07:32:33;;;;;;;84.47;47.33;;;4.80;99.90;;;;;;5051695;28;20071;-34
2022/03/25 07:34:59;;;;;;;85.47;46.50;;;4.80;99.90;;;;;;5070567;28;20049;-31
2022/03/25 07:37:25;;;;;;;81.50;45.20;;;4.90;99.90;;;;;;5055622;28;20380;-31
2022/03/25 07:39:51;;;;;;;80.53;46.83;;;5.00;99.90;;;;;;5067390;28;20128;-33
2022/03/25 07:42:16;;;;;;;75.20;45.10;;;5.10;99.90;;;;;;5050569;28;20033;-33
2022/03/25 07:44:42;;;;;;;74.17;44.63;;;5.20;99.90;;;;;;5061750;28;20129;-31
2022/03/25 07:47:11;;;;;;;72.73;44.57;;;5.30;99.90;;;;;;5048730;28;20425;-32
2022/03/25 07:49:39;;;;;;;78.23;45.60;;;5.30;99.90;;;;;;5049564;28;20037;-35
2022/03/25 07:52:07;;;;;;;67.67;42.27;;;5.50;99.90;;;;;;5066193;28;20485;-31
2022/03/25 07:54:32;;;;;;;66.77;40.53;;;5.50;99.90;;;;;;5068930;28;20067;-33
2022/03/25 07:56:58;;;;;;;68.60;41.27;;;5.60;99.90;;;;;;5054014;28;20053;-32
2022/03/25 07:59:28;;;;;;;68.97;41.43;;;5.70;99.90;;;;;;5067539;28;20048;-34
2022/03/25 08:01:55;;;;;;;68.07;42.30;;;5.80;99.90;;;;;;5051627;28;20671;-33
2022/03/25 08:04:23;;;;;;;67.83;41.17;;;6.00;99.90;;;;;;5055446;28;20179;-31
2022/03/25 08:06:53;;;;;;;69.73;42.20;;;6.10;99.90;;;;;;5034729;28;20278;-32
2022/03/25 08:09:19;;;;;;;62.90;38.47;;;6.20;99.90;;;;;;5051010;28;20118;-32
2022/03/25 08:11:48;;;;;;;66.07;39.17;;;6.20;99.90;;;;;;5061578;28;20037;-32
2022/03/25 08:14:15;;;;;;;67.00;39.20;;;6.30;99.90;;;;;;5064016;28;20098;-36
2022/03/25 08:16:45;;;;;;;63.83;38.37;;;6.50;99.90;;;;;;5064402;28;20040;-37
2022/03/25 08:19:11;;;;;;;63.80;38.60;;;6.50;99.90;;;;;;5042042;28;20041;-37
2022/03/25 08:21:38;;;;;;;59.87;36.60;;;6.60;99.90;;;;;;5052937;28;20061;-35
2022/03/25 08:29:33;;;;;;;53.70;34.47;;;6.80;99.90;;;;;;5058800;28;20333;-36
2022/03/25 08:31:58;;;;;;;58.40;34.73;;;7.00;99.90;;;;;;5058564;28;20080;-34
2022/03/25 08:34:24;;;;;;;53.50;33.33;;;7.00;99.90;;;;;;5053336;28;20051;-34
2022/03/25 08:36:50;;;;;;;49.10;31.03;;;7.10;99.90;;;;;;5039914;28;20526;-36
2022/03/25 08:39:17;;;;;;;50.53;31.70;;;7.10;99.90;;;;;;5059350;28;20072;-34
2022/03/25 08:41:43;;;;;;;51.30;31.47;;;7.20;99.90;;;;;;5062249;28;20075;-38
2022/03/25 08:44:09;;;;;;;51.87;30.80;;;7.30;99.90;;;;;;5066883;28;20447;-34
2022/03/25 08:46:35;;;;;;;48.33;30.97;;;7.30;99.90;;;;;;5037690;28;20052;-37
2022/03/25 08:49:03;;;;;;;49.30;29.63;;;7.40;99.90;;;;;;5060730;28;20041;-35
2022/03/25 08:51:29;;;;;;;50.10;30.37;;;7.40;99.90;;;;;;5062596;28;20605;-36
2022/03/25 08:53:54;;;;;;;40.80;27.27;;;7.60;99.90;;;;;;5058199;28;20130;-33
2022/03/25 08:56:22;;;;;;;51.07;28.30;;;7.60;99.90;;;;;;5030577;28;20492;-36
2022/03/25 08:58:48;;;;;;;47.50;27.20;;;7.70;99.90;;;;;;5053825;28;20059;-35
2022/03/25 09:01:14;;;;;;;43.47;27.20;;;7.70;99.90;;;;;;5038831;28;20048;-36
2022/03/25 09:03:39;;;;;;;50.33;27.93;;;7.90;99.90;;;;;;5059056;28;20041;-35
2022/03/25 09:06:06;;;;;;;41.67;25.57;;;8.00;99.90;;;;;;5056680;28;20048;-38
2022/03/25 09:08:32;;;;;;;38.07;24.77;;;8.00;99.90;;;;;;5013015;28;20043;-35
2022/03/25 09:10:57;;;;;;;46.17;27.07;;;8.10;99.90;;;;;;5044920;28;20049;-35
2022/03/25 09:13:23;;;;;;;44.00;26.57;;;8.20;99.90;;;;;;5049830;28;20044;-35
2022/03/25 09:15:50;;;;;;;44.37;25.27;;;8.30;99.90;;;;;;5057062;28;20049;-31
2022/03/25 09:18:15;;;;;;;42.37;25.97;;;8.40;99.90;;;;;;5045126;28;20040;-33
2022/03/25 09:20:41;;;;;;;43.60;26.60;;;8.40;99.90;;;;;;5067123;28;20499;-33
2022/03/25 09:23:08;;;;;;;41.27;25.07;;;8.50;99.90;;;;;;5066157;28;20495;-34
2022/03/25 09:25:35;;;;;;;38.33;23.97;;;8.60;99.90;;;;;;5063513;28;20053;-33
2022/03/25 09:28:01;;;;;;;40.17;23.93;;;8.70;99.90;;;;;;5048824;28;20394;-34
2022/03/25 09:30:27;;;;;;;39.90;23.53;;;8.90;99.90;;;;;;5059823;28;20044;-35
2022/03/25 09:32:53;;;;;;;45.20;25.10;;;9.00;99.90;;;;;;5064878;28;20500;-35
2022/03/25 09:35:20;;;;;;;43.00;23.40;;;9.10;99.90;;;;;;5064971;28;20045;-34
2022/03/25 09:37:48;;;;;;;35.60;22.97;;;9.20;99.90;;;;;;5050240;28;20057;-35
2022/03/25 09:40:22;;;;;;;37.23;23.57;;;9.30;99.90;;;;;;5065248;28;20052;-35
2022/03/25 09:42:51;;;;;;;35.53;21.17;;;9.40;99.90;;;;;;5066369;28;20068;-33
2022/03/25 09:45:17;;;;;;;36.37;22.37;;;9.50;99.90;;;;;;5060236;28;20044;-35
2022/03/25 09:47:44;;;;;;;37.70;22.57;;;9.50;99.90;;;;;;5041383;28;20056;-31
2022/03/25 09:50:12;;;;;;;41.37;23.17;;;9.60;99.90;;;;;;5038367;28;20048;-35
2022/03/25 09:52:38;;;;;;;38.80;22.47;;;9.70;99.90;;;;;;5055087;28;20120;-35
2022/03/25 09:55:05;;;;;;;36.50;22.00;;;9.80;99.90;;;;;;5053324;28;20159;-34
2022/03/25 09:57:32;;;;;;;33.83;21.50;;;9.90;99.90;;;;;;5043272;28;20135;-35
2022/03/25 09:59:58;;;;;;;38.80;22.27;;;9.90;99.90;;;;;;5057946;28;20472;-32
2022/03/25 10:02:24;;;;;;;39.20;23.03;;;10.10;99.90;;;;;;5059427;28;20443;-34
2022/03/25 10:04:51;;;;;;;39.10;21.63;;;10.20;99.90;;;;;;5060004;28;20037;-36
2022/03/25 10:07:26;;;;;;;34.37;19.87;;;10.30;99.90;;;;;;5039675;28;20056;-37
2022/03/25 10:10:19;;;;;;;34.07;19.40;;;10.40;99.90;;;;;;5062227;28;20048;-36
2022/03/25 10:12:50;;;;;;;31.33;20.40;;;10.40;99.90;;;;;;5059145;28;20127;-38
2022/03/25 10:15:27;;;;;;;34.47;19.73;;;10.60;99.90;;;;;;5064237;28;20072;-38
2022/03/25 10:18:00;;;;;;;32.23;18.10;;;10.70;99.90;;;;;;5045706;28;20052;-36
2022/03/25 10:20:32;;;;;;;31.10;19.27;;;10.70;99.90;;;;;;5061590;28;20048;-38
2022/03/25 10:23:04;;;;;;;33.30;18.97;;;10.90;99.90;;;;;;5065478;28;20045;-37
2022/03/25 10:25:37;;;;;;;36.53;20.23;;;11.00;99.90;;;;;;5066357;28;20177;-37
2022/03/25 10:28:04;;;;;;;34.83;19.87;;;11.00;99.90;;;;;;5050409;28;20075;-36
2022/03/25 10:30:38;;;;;;;32.93;19.80;;;11.20;99.90;;;;;;5065256;28;20052;-37
2022/03/25 10:33:11;;;;;;;36.13;20.10;;;11.30;99.90;;;;;;5065240;28;20087;-36
2022/03/25 10:35:59;;;;;;;36.80;21.30;;;11.40;99.90;;;;;;5066356;28;20044;-36
2022/03/25 10:38:26;;;;;;;36.30;20.50;;;11.50;99.90;;;;;;5022750;28;20547;-39
2022/03/25 10:40:53;;;;;;;36.70;19.80;;;11.50;99.90;;;;;;5058626;28;20359;-35
2022/03/25 10:43:20;;;;;;;31.92;19.50;;;11.60;99.90;;;;;;5047075;28;20125;-34
2022/03/25 10:45:47;;;;;;;34.42;20.10;;;11.70;99.90;;;;;;5065433;28;20353;-37
2022/03/25 10:48:20;;;;;;;33.88;20.55;;;11.70;99.90;;;;;;5048620;28;20048;-36
2022/03/25 10:51:03;;;;;;;32.35;19.92;;;11.90;99.90;;;;;;5062981;28;20048;-43
2022/03/25 10:53:31;;;;;;;36.17;20.45;;;12.00;99.90;;;;;;5061513;28;20041;-43
2022/03/25 10:55:59;;;;;;;31.40;20.30;;;12.10;99.90;;;;;;5058967;28;20045;-43
2022/03/25 10:58:26;;;;;;;35.47;20.58;;;12.20;99.90;;;;;;5048689;28;20052;-43
2022/03/25 11:00:51;;;;;;;38.92;20.77;;;12.30;99.90;;;;;;5064715;28;20508;-43
2022/03/25 11:03:17;;;;;;;34.60;21.23;;;12.40;99.90;;;;;;5063583;28;20044;-43
2022/03/25 11:05:44;;;;;;;36.25;20.70;;;12.50;99.90;;;;;;5062803;28;20608;-43
2022/03/25 11:08:10;;;;;;;35.10;20.75;;;12.60;99.90;;;;;;5049121;28;20052;-43
2022/03/25 11:10:38;;;;;;;36.08;20.70;;;12.70;99.90;;;;;;5064107;28;20051;-43
2022/03/25 11:13:05;;;;;;;36.15;20.58;;;12.80;99.90;;;;;;5064341;28;20060;-43
2022/03/25 11:15:31;;;;;;;34.83;20.73;;;12.90;99.90;;;;;;5063595;28;20454;-43
2022/03/25 11:17:58;;;;;;;32.17;18.90;;;12.90;99.90;;;;;;5039527;28;20075;-43
2022/03/25 11:20:27;;;;;;;37.08;18.75;;;13.00;99.90;;;;;;5064478;28;20055;-43
2022/03/25 11:23:11;;;;;;;34.70;18.67;;;13.10;99.90;;;;;;5061694;28;20072;-43
2022/03/25 11:25:47;;;;;;;32.33;17.02;;;13.10;99.90;;;;;;5060154;28;20048;-43
2022/03/25 11:28:17;;;;;;;37.47;18.02;;;13.20;99.90;;;;;;5045380;28;20087;-43
2022/03/25 11:30:43;;;;;;;30.55;16.35;;;13.30;99.90;;;;;;5062065;28;20038;-43
2022/03/25 11:33:10;;;;;;;33.25;16.73;;;13.30;99.90;;;;;;5064075;28;20052;-43
2022/03/25 11:35:41;;;;;;;33.40;16.58;;;13.40;99.90;;;;;;5058132;28;20123;-43
2022/03/25 11:38:15;;;;;;;28.33;16.33;;;13.50;99.90;;;;;;5050935;28;20430;-43
2022/03/25 11:40:52;;;;;;;29.35;16.05;;;13.60;99.90;;;;;;5066631;28;20045;-42
2022/03/25 11:43:25;;;;;;;31.55;16.38;;;13.70;99.90;;;;;;5066126;28;20127;-42
2022/03/25 11:46:00;;;;;;;31.05;15.65;;;13.80;99.90;;;;;;5048576;28;20048;-42
2022/03/25 11:48:25;;;;;;;28.40;15.45;;;14.00;99.90;;;;;;5050590;28;20742;-43
2022/03/25 11:50:54;;;;;;;24.33;15.00;;;14.00;99.90;;;;;;5064690;28;20041;-43
2022/03/25 11:53:22;;;;;;;31.75;16.73;;;14.10;99.90;;;;;;5061525;28;20045;-42
2022/03/25 11:56:04;;;;;;;30.48;17.92;;;14.20;99.90;;;;;;5066312;28;20102;-43
2022/03/25 11:58:38;;;;;;;29.92;17.77;;;14.30;99.90;;;;;;5052655;28;20052;-42
2022/03/25 12:01:11;;;;;;;36.28;20.48;;;14.30;99.90;;;;;;5064108;28;20629;-42
2022/03/25 12:03:47;;;;;;;35.15;20.67;;;14.40;99.90;;;;;;5034981;28;20037;-42
2022/03/25 12:06:13;;;;;;;35.35;23.17;;;14.40;99.90;;;;;;5056221;28;20131;-42
2022/03/25 12:09:06;;;;;;;37.00;24.77;;;14.50;99.90;;;;;;5042455;28;20051;-42
2022/03/25 12:11:53;;;;;;;40.80;23.65;;;14.50;99.90;;;;;;5062485;28;20032;-42
2022/03/25 12:14:32;;;;;;;38.72;24.48;;;14.60;99.90;;;;;;5066135;28;20047;-42
2022/03/25 12:17:07;;;;;;;38.80;24.65;;;14.60;99.90;;;;;;5049767;28;20045;-42
2022/03/25 12:19:41;;;;;;;40.50;23.95;;;14.60;99.90;;;;;;5061318;28;20044;-42
2022/03/25 12:22:19;;;;;;;36.13;22.77;;;14.60;99.90;;;;;;5062748;28;20513;-42
2022/03/25 12:24:50;;;;;;;39.83;23.25;;;14.70;99.90;;;;;;5068733;28;20061;-42
2022/03/25 12:27:17;;;;;;;37.30;24.02;;;14.70;99.90;;;;;;5039602;28;20037;-42
2022/03/25 12:29:44;;;;;;;38.53;22.27;;;14.70;99.90;;;;;;5027986;28;20036;-42
2022/03/25 12:32:15;;;;;;;34.28;21.75;;;14.80;99.90;;;;;;5056242;28;20116;-43
2022/03/25 12:34:44;;;;;;;33.67;20.52;;;14.80;99.70;;;;;;5059016;28;20044;-43
2022/03/25 12:37:13;;;;;;;32.88;18.98;;;14.80;99.10;;;;;;5039783;28;20041;-42
2022/03/25 12:39:38;;;;;;;27.75;17.55;;;14.90;98.80;;;;;;5056777;28;20045;-43